sensor_id;sensor_type;location;lat;lon;timestamp;temperature;humidity
75931;DHT22;64609;47.052;15.462;2023-05-20T00:00:59;18.60;67.70
75931;DHT22;64609;47.052;15.462;2023-05-20T00:03:24;18.60;67.90
75931;DHT22;64609;47.052;15.462;2023-05-20T00:05:50;18.60;67.90
75931;DHT22;64609;47.052;15.462;2023-05-20T00:08:17;18.70;68.10
75931;DHT22;64609;47.052;15.462;2023-05-20T00:10:43;18.60;68.10
75931;DHT22;64609;47.052;15.462;2023-05-20T00:13:09;18.60;68.10
75931;DHT22;64609;47.052;15.462;2023-05-20T00:15:35;18.70;68.20
75931;DHT22;64609;47.052;15.462;2023-05-20T00:18:01;18.60;68.40
75931;DHT22;64609;47.052;15.462;2023-05-20T00:20:27;18.60;68.50
75931;DHT22;64609;47.052;15.462;2023-05-20T00:22:53;18.60;68.50
75931;DHT22;64609;47.052;15.462;2023-05-20T00:25:18;18.60;68.40
75931;DHT22;64609;47.052;15.462;2023-05-20T00:27:44;18.60;68.60
75931;DHT22;64609;47.052;15.462;2023-05-20T00:30:11;18.50;69.00
75931;DHT22;64609;47.052;15.462;2023-05-20T00:32:37;18.40;69.30
75931;DHT22;64609;47.052;15.462;2023-05-20T00:35:02;18.40;69.40
75931;DHT22;64609;47.052;15.462;2023-05-20T00:37:28;18.50;69.50
75931;DHT22;64609;47.052;15.462;2023-05-20T00:39:54;18.50;69.50
75931;DHT22;64609;47.052;15.462;2023-05-20T00:42:24;18.50;69.50
75931;DHT22;64609;47.052;15.462;2023-05-20T00:44:51;18.50;69.50
75931;DHT22;64609;47.052;15.462;2023-05-20T00:47:18;18.50;69.50
75931;DHT22;64609;47.052;15.462;2023-05-20T00:49:45;18.60;69.50
75931;DHT22;64609;47.052;15.462;2023-05-20T00:52:11;18.60;69.40
75931;DHT22;64609;47.052;15.462;2023-05-20T00:54:39;18.50;69.30
75931;DHT22;64609;47.052;15.462;2023-05-20T00:57:06;18.50;69.50
75931;DHT22;64609;47.052;15.462;2023-05-20T00:59:36;18.50;69.50
75931;DHT22;64609;47.052;15.462;2023-05-20T01:02:05;18.50;69.50
75931;DHT22;64609;47.052;15.462;2023-05-20T01:04:32;18.50;69.60
75931;DHT22;64609;47.052;15.462;2023-05-20T01:07:04;18.50;69.50
75931;DHT22;64609;47.052;15.462;2023-05-20T01:09:31;18.50;69.50
75931;DHT22;64609;47.052;15.462;2023-05-20T01:17:31;18.30;70.10
75931;DHT22;64609;47.052;15.462;2023-05-20T01:19:58;18.30;70.20
75931;DHT22;64609;47.052;15.462;2023-05-20T01:22:26;18.20;70.60
75931;DHT22;64609;47.052;15.462;2023-05-20T01:24:52;18.10;70.80
75931;DHT22;64609;47.052;15.462;2023-05-20T01:27:19;18.10;70.80
75931;DHT22;64609;47.052;15.462;2023-05-20T01:29:47;18.20;70.90
75931;DHT22;64609;47.052;15.462;2023-05-20T01:32:38;18.20;70.80
75931;DHT22;64609;47.052;15.462;2023-05-20T01:35:06;18.30;70.80
75931;DHT22;64609;47.052;15.462;2023-05-20T01:37:34;18.30;70.50
75931;DHT22;64609;47.052;15.462;2023-05-20T01:40:02;18.30;70.30
75931;DHT22;64609;47.052;15.462;2023-05-20T01:42:29;18.30;70.40
75931;DHT22;64609;47.052;15.462;2023-05-20T01:44:55;18.30;70.30
75931;DHT22;64609;47.052;15.462;2023-05-20T01:47:21;18.30;70.10
75931;DHT22;64609;47.052;15.462;2023-05-20T01:49:46;18.30;70.30
75931;DHT22;64609;47.052;15.462;2023-05-20T01:52:13;18.30;70.30
75931;DHT22;64609;47.052;15.462;2023-05-20T01:54:39;18.30;70.30
75931;DHT22;64609;47.052;15.462;2023-05-20T01:57:05;18.40;70.30
75931;DHT22;64609;47.052;15.462;2023-05-20T01:59:31;18.30;70.20
75931;DHT22;64609;47.052;15.462;2023-05-20T02:01:56;18.30;71.20
75931;DHT22;64609;47.052;15.462;2023-05-20T02:04:22;18.30;70.30
75931;DHT22;64609;47.052;15.462;2023-05-20T02:06:47;18.30;70.40
75931;DHT22;64609;47.052;15.462;2023-05-20T02:09:13;18.20;70.40
75931;DHT22;64609;47.052;15.462;2023-05-20T02:11:39;18.20;70.50
75931;DHT22;64609;47.052;15.462;2023-05-20T02:14:05;18.20;70.40
75931;DHT22;64609;47.052;15.462;2023-05-20T02:16:30;18.30;70.40
75931;DHT22;64609;47.052;15.462;2023-05-20T02:18:56;18.30;70.40
75931;DHT22;64609;47.052;15.462;2023-05-20T02:21:23;18.30;70.20
75931;DHT22;64609;47.052;15.462;2023-05-20T02:23:49;18.30;70.20
75931;DHT22;64609;47.052;15.462;2023-05-20T02:26:15;18.30;70.20
75931;DHT22;64609;47.052;15.462;2023-05-20T02:28:41;18.30;70.30
75931;DHT22;64609;47.052;15.462;2023-05-20T02:31:14;18.30;70.30
75931;DHT22;64609;47.052;15.462;2023-05-20T02:33:40;18.30;70.30
75931;DHT22;64609;47.052;15.462;2023-05-20T02:36:06;18.20;70.30
75931;DHT22;64609;47.052;15.462;2023-05-20T02:38:32;18.20;70.60
75931;DHT22;64609;47.052;15.462;2023-05-20T02:40:57;18.20;70.60
75931;DHT22;64609;47.052;15.462;2023-05-20T02:43:24;18.20;70.80
75931;DHT22;64609;47.052;15.462;2023-05-20T02:45:50;18.30;71.00
75931;DHT22;64609;47.052;15.462;2023-05-20T02:48:16;18.30;71.00
75931;DHT22;64609;47.052;15.462;2023-05-20T02:50:41;18.30;71.10
75931;DHT22;64609;47.052;15.462;2023-05-20T02:53:07;18.30;71.20
75931;DHT22;64609;47.052;15.462;2023-05-20T02:55:33;18.30;71.20
75931;DHT22;64609;47.052;15.462;2023-05-20T02:58:00;18.30;71.30
75931;DHT22;64609;47.052;15.462;2023-05-20T03:00:26;18.20;71.50
75931;DHT22;64609;47.052;15.462;2023-05-20T03:02:54;18.10;71.70
75931;DHT22;64609;47.052;15.462;2023-05-20T03:05:20;18.10;71.90
75931;DHT22;64609;47.052;15.462;2023-05-20T03:07:47;18.10;72.00
75931;DHT22;64609;47.052;15.462;2023-05-20T03:10:13;18.10;72.10
75931;DHT22;64609;47.052;15.462;2023-05-20T03:12:39;18.10;72.20
75931;DHT22;64609;47.052;15.462;2023-05-20T03:15:05;18.10;72.10
75931;DHT22;64609;47.052;15.462;2023-05-20T03:17:31;18.20;72.10
75931;DHT22;64609;47.052;15.462;2023-05-20T03:19:57;18.20;72.00
75931;DHT22;64609;47.052;15.462;2023-05-20T03:22:22;18.10;72.10
75931;DHT22;64609;47.052;15.462;2023-05-20T03:24:48;18.10;72.40
75931;DHT22;64609;47.052;15.462;2023-05-20T03:27:13;18.10;72.30
75931;DHT22;64609;47.052;15.462;2023-05-20T03:29:39;18.10;72.40
75931;DHT22;64609;47.052;15.462;2023-05-20T03:32:05;18.10;72.40
75931;DHT22;64609;47.052;15.462;2023-05-20T03:34:31;18.10;72.40
75931;DHT22;64609;47.052;15.462;2023-05-20T03:36:57;18.00;72.40
75931;DHT22;64609;47.052;15.462;2023-05-20T03:39:24;18.10;72.60
75931;DHT22;64609;47.052;15.462;2023-05-20T03:41:50;18.10;72.30
75931;DHT22;64609;47.052;15.462;2023-05-20T03:44:15;18.20;72.30
75931;DHT22;64609;47.052;15.462;2023-05-20T03:46:41;18.20;72.40
75931;DHT22;64609;47.052;15.462;2023-05-20T03:49:07;18.20;72.40
75931;DHT22;64609;47.052;15.462;2023-05-20T03:51:33;18.20;72.40
75931;DHT22;64609;47.052;15.462;2023-05-20T03:53:58;18.20;72.40
75931;DHT22;64609;47.052;15.462;2023-05-20T03:56:24;18.20;72.40
75931;DHT22;64609;47.052;15.462;2023-05-20T03:58:50;18.20;72.50
75931;DHT22;64609;47.052;15.462;2023-05-20T04:01:16;18.20;72.50
75931;DHT22;64609;47.052;15.462;2023-05-20T04:03:42;18.30;72.40
75931;DHT22;64609;47.052;15.462;2023-05-20T04:06:08;18.20;72.40
75931;DHT22;64609;47.052;15.462;2023-05-20T04:08:33;18.30;72.40
75931;DHT22;64609;47.052;15.462;2023-05-20T04:11:01;18.30;72.30
75931;DHT22;64609;47.052;15.462;2023-05-20T04:13:27;18.30;72.20
75931;DHT22;64609;47.052;15.462;2023-05-20T04:15:53;18.40;72.40
75931;DHT22;64609;47.052;15.462;2023-05-20T04:18:18;18.40;72.20
75931;DHT22;64609;47.052;15.462;2023-05-20T04:20:45;18.30;72.00
75931;DHT22;64609;47.052;15.462;2023-05-20T04:23:11;18.30;72.00
75931;DHT22;64609;47.052;15.462;2023-05-20T04:25:37;18.30;72.10
75931;DHT22;64609;47.052;15.462;2023-05-20T04:28:03;18.40;72.10
75931;DHT22;64609;47.052;15.462;2023-05-20T04:30:29;18.40;71.80
75931;DHT22;64609;47.052;15.462;2023-05-20T04:32:58;18.50;71.80
75931;DHT22;64609;47.052;15.462;2023-05-20T04:35:23;18.60;71.50
75931;DHT22;64609;47.052;15.462;2023-05-20T04:37:50;18.70;71.10
75931;DHT22;64609;47.052;15.462;2023-05-20T04:40:18;18.70;70.70
75931;DHT22;64609;47.052;15.462;2023-05-20T04:42:45;18.80;70.70
75931;DHT22;64609;47.052;15.462;2023-05-20T04:45:11;18.90;70.40
75931;DHT22;64609;47.052;15.462;2023-05-20T04:47:37;18.90;69.90
75931;DHT22;64609;47.052;15.462;2023-05-20T04:50:12;19.00;69.60
75931;DHT22;64609;47.052;15.462;2023-05-20T04:52:38;19.00;69.60
75931;DHT22;64609;47.052;15.462;2023-05-20T04:55:07;19.10;69.60
75931;DHT22;64609;47.052;15.462;2023-05-20T04:57:37;19.10;69.30
75931;DHT22;64609;47.052;15.462;2023-05-20T05:00:09;19.20;69.10
75931;DHT22;64609;47.052;15.462;2023-05-20T05:02:35;19.30;68.90
75931;DHT22;64609;47.052;15.462;2023-05-20T05:05:01;19.40;68.70
75931;DHT22;64609;47.052;15.462;2023-05-20T05:07:27;19.40;68.40
75931;DHT22;64609;47.052;15.462;2023-05-20T05:09:53;19.50;68.10
75931;DHT22;64609;47.052;15.462;2023-05-20T05:12:18;19.50;67.90
75931;DHT22;64609;47.052;15.462;2023-05-20T05:14:44;19.50;67.80
75931;DHT22;64609;47.052;15.462;2023-05-20T05:17:10;19.50;67.70
75931;DHT22;64609;47.052;15.462;2023-05-20T05:19:36;19.50;67.60
75931;DHT22;64609;47.052;15.462;2023-05-20T05:22:01;19.50;67.70
75931;DHT22;64609;47.052;15.462;2023-05-20T05:24:27;19.60;67.70
75931;DHT22;64609;47.052;15.462;2023-05-20T05:26:54;19.50;67.70
75931;DHT22;64609;47.052;15.462;2023-05-20T05:29:20;19.50;67.70
75931;DHT22;64609;47.052;15.462;2023-05-20T05:31:45;19.50;67.70
75931;DHT22;64609;47.052;15.462;2023-05-20T05:34:11;19.40;67.90
75931;DHT22;64609;47.052;15.462;2023-05-20T05:36:39;19.40;68.10
75931;DHT22;64609;47.052;15.462;2023-05-20T05:39:05;19.50;68.10
75931;DHT22;64609;47.052;15.462;2023-05-20T05:41:31;19.50;67.70
75931;DHT22;64609;47.052;15.462;2023-05-20T05:43:57;19.60;67.60
75931;DHT22;64609;47.052;15.462;2023-05-20T05:46:23;19.50;67.60
75931;DHT22;64609;47.052;15.462;2023-05-20T05:48:49;19.40;67.70
75931;DHT22;64609;47.052;15.462;2023-05-20T05:51:15;19.30;68.10
75931;DHT22;64609;47.052;15.462;2023-05-20T05:53:41;19.20;68.60
75931;DHT22;64609;47.052;15.462;2023-05-20T05:56:07;19.30;69.00
75931;DHT22;64609;47.052;15.462;2023-05-20T05:58:33;19.40;69.10
75931;DHT22;64609;47.052;15.462;2023-05-20T06:00:58;19.60;68.70
75931;DHT22;64609;47.052;15.462;2023-05-20T06:03:24;19.70;68.60
75931;DHT22;64609;47.052;15.462;2023-05-20T06:05:50;19.70;68.50
75931;DHT22;64609;47.052;15.462;2023-05-20T06:08:16;19.80;68.20
75931;DHT22;64609;47.052;15.462;2023-05-20T06:10:49;19.90;68.00
75931;DHT22;64609;47.052;15.462;2023-05-20T06:13:15;20.00;67.60
75931;DHT22;64609;47.052;15.462;2023-05-20T06:15:41;20.10;67.10
75931;DHT22;64609;47.052;15.462;2023-05-20T06:18:06;20.30;66.50
75931;DHT22;64609;47.052;15.462;2023-05-20T06:20:32;20.40;65.80
75931;DHT22;64609;47.052;15.462;2023-05-20T06:22:58;20.50;65.00
75931;DHT22;64609;47.052;15.462;2023-05-20T06:25:24;20.60;64.60
75931;DHT22;64609;47.052;15.462;2023-05-20T06:27:50;20.60;64.50
75931;DHT22;64609;47.052;15.462;2023-05-20T06:30:15;20.70;64.50
75931;DHT22;64609;47.052;15.462;2023-05-20T06:32:42;20.80;64.20
75931;DHT22;64609;47.052;15.462;2023-05-20T06:35:08;20.90;63.70
75931;DHT22;64609;47.052;15.462;2023-05-20T06:37:34;20.90;63.60
75931;DHT22;64609;47.052;15.462;2023-05-20T06:39:59;21.10;63.50
75931;DHT22;64609;47.052;15.462;2023-05-20T06:42:25;21.20;63.00
75931;DHT22;64609;47.052;15.462;2023-05-20T06:44:51;21.30;62.70
75931;DHT22;64609;47.052;15.462;2023-05-20T06:47:16;21.50;62.50
75931;DHT22;64609;47.052;15.462;2023-05-20T06:49:43;21.50;62.10
75931;DHT22;64609;47.052;15.462;2023-05-20T06:52:09;21.60;61.80
75931;DHT22;64609;47.052;15.462;2023-05-20T06:54:36;21.70;61.90
75931;DHT22;64609;47.052;15.462;2023-05-20T06:57:07;21.80;61.60
75931;DHT22;64609;47.052;15.462;2023-05-20T06:59:34;21.80;61.40
75931;DHT22;64609;47.052;15.462;2023-05-20T07:02:00;21.90;60.90
75931;DHT22;64609;47.052;15.462;2023-05-20T07:04:25;22.00;60.70
75931;DHT22;64609;47.052;15.462;2023-05-20T07:06:51;22.00;60.90
75931;DHT22;64609;47.052;15.462;2023-05-20T07:09:17;22.10;61.30
75931;DHT22;64609;47.052;15.462;2023-05-20T07:11:42;22.30;61.10
75931;DHT22;64609;47.052;15.462;2023-05-20T07:14:08;22.40;59.80
75931;DHT22;64609;47.052;15.462;2023-05-20T07:16:34;22.30;59.80
75931;DHT22;64609;47.052;15.462;2023-05-20T07:19:01;22.30;59.60
75931;DHT22;64609;47.052;15.462;2023-05-20T07:21:27;22.30;60.60
75931;DHT22;64609;47.052;15.462;2023-05-20T07:23:52;22.30;60.40
75931;DHT22;64609;47.052;15.462;2023-05-20T07:26:18;22.50;60.00
75931;DHT22;64609;47.052;15.462;2023-05-20T07:28:44;22.50;59.70
75931;DHT22;64609;47.052;15.462;2023-05-20T07:31:11;22.50;59.60
75931;DHT22;64609;47.052;15.462;2023-05-20T07:33:37;22.40;59.90
75931;DHT22;64609;47.052;15.462;2023-05-20T07:36:03;22.60;59.90
75931;DHT22;64609;47.052;15.462;2023-05-20T07:38:29;22.60;59.70
75931;DHT22;64609;47.052;15.462;2023-05-20T07:40:55;22.50;60.10
75931;DHT22;64609;47.052;15.462;2023-05-20T07:43:20;22.60;60.30
75931;DHT22;64609;47.052;15.462;2023-05-20T07:45:46;22.60;60.20
75931;DHT22;64609;47.052;15.462;2023-05-20T07:48:12;22.60;59.40
75931;DHT22;64609;47.052;15.462;2023-05-20T07:50:38;22.60;60.00
75931;DHT22;64609;47.052;15.462;2023-05-20T07:53:04;22.60;59.70
75931;DHT22;64609;47.052;15.462;2023-05-20T07:55:33;22.70;59.90
75931;DHT22;64609;47.052;15.462;2023-05-20T07:58:00;22.80;59.70
75931;DHT22;64609;47.052;15.462;2023-05-20T08:00:26;22.80;59.50
75931;DHT22;64609;47.052;15.462;2023-05-20T08:02:51;22.80;60.00
75931;DHT22;64609;47.052;15.462;2023-05-20T08:05:17;22.70;59.80
75931;DHT22;64609;47.052;15.462;2023-05-20T08:07:43;22.70;60.10
75931;DHT22;64609;47.052;15.462;2023-05-20T08:10:08;22.70;59.90
75931;DHT22;64609;47.052;15.462;2023-05-20T08:12:34;22.70;59.90
75931;DHT22;64609;47.052;15.462;2023-05-20T08:15:00;22.70;60.00
75931;DHT22;64609;47.052;15.462;2023-05-20T08:17:25;22.80;60.40
75931;DHT22;64609;47.052;15.462;2023-05-20T08:19:51;23.20;60.40
75931;DHT22;64609;47.052;15.462;2023-05-20T08:22:17;23.50;58.80
75931;DHT22;64609;47.052;15.462;2023-05-20T08:24:42;23.70;58.20
75931;DHT22;64609;47.052;15.462;2023-05-20T08:27:08;23.90;58.00
75931;DHT22;64609;47.052;15.462;2023-05-20T08:29:33;24.00;57.80
75931;DHT22;64609;47.052;15.462;2023-05-20T08:31:59;24.20;57.60
75931;DHT22;64609;47.052;15.462;2023-05-20T08:34:25;24.30;56.60
75931;DHT22;64609;47.052;15.462;2023-05-20T08:36:50;24.10;56.40
75931;DHT22;64609;47.052;15.462;2023-05-20T08:39:17;24.10;56.70
75931;DHT22;64609;47.052;15.462;2023-05-20T08:41:42;24.20;57.00
75931;DHT22;64609;47.052;15.462;2023-05-20T08:44:09;24.60;56.60
75931;DHT22;64609;47.052;15.462;2023-05-20T08:46:38;25.10;56.20
75931;DHT22;64609;47.052;15.462;2023-05-20T08:49:04;25.90;54.90
75931;DHT22;64609;47.052;15.462;2023-05-20T08:51:32;26.60;51.90
75931;DHT22;64609;47.052;15.462;2023-05-20T08:54:01;27.20;51.20
75931;DHT22;64609;47.052;15.462;2023-05-20T08:56:26;27.30;49.20
75931;DHT22;64609;47.052;15.462;2023-05-20T08:58:52;27.10;50.20
75931;DHT22;64609;47.052;15.462;2023-05-20T09:01:21;27.00;50.40
75931;DHT22;64609;47.052;15.462;2023-05-20T09:03:47;26.70;50.00
75931;DHT22;64609;47.052;15.462;2023-05-20T09:06:15;26.90;51.20
75931;DHT22;64609;47.052;15.462;2023-05-20T09:08:41;27.30;50.40
75931;DHT22;64609;47.052;15.462;2023-05-20T09:11:09;27.60;50.20
75931;DHT22;64609;47.052;15.462;2023-05-20T09:13:34;27.10;49.40
75931;DHT22;64609;47.052;15.462;2023-05-20T09:16:01;26.70;49.90
75931;DHT22;64609;47.052;15.462;2023-05-20T09:18:27;25.90;50.40
75931;DHT22;64609;47.052;15.462;2023-05-20T09:20:53;25.50;51.80
75931;DHT22;64609;47.052;15.462;2023-05-20T09:23:19;24.90;52.30
75931;DHT22;64609;47.052;15.462;2023-05-20T09:25:50;24.70;53.20
75931;DHT22;64609;47.052;15.462;2023-05-20T09:28:21;24.90;54.00
75931;DHT22;64609;47.052;15.462;2023-05-20T09:30:48;25.40;53.20
75931;DHT22;64609;47.052;15.462;2023-05-20T09:33:15;25.80;52.00
75931;DHT22;64609;47.052;15.462;2023-05-20T09:35:42;26.00;50.70
75931;DHT22;64609;47.052;15.462;2023-05-20T09:38:08;26.20;50.20
75931;DHT22;64609;47.052;15.462;2023-05-20T09:40:34;25.90;50.50
75931;DHT22;64609;47.052;15.462;2023-05-20T09:43:05;25.80;50.00
75931;DHT22;64609;47.052;15.462;2023-05-20T09:45:36;25.60;50.30
75931;DHT22;64609;47.052;15.462;2023-05-20T09:48:03;25.60;51.10
75931;DHT22;64609;47.052;15.462;2023-05-20T09:50:30;25.70;50.20
75931;DHT22;64609;47.052;15.462;2023-05-20T09:53:01;25.70;50.30
75931;DHT22;64609;47.052;15.462;2023-05-20T09:55:27;25.80;49.10
75931;DHT22;64609;47.052;15.462;2023-05-20T09:57:54;26.00;49.20
75931;DHT22;64609;47.052;15.462;2023-05-20T10:00:20;26.80;48.30
75931;DHT22;64609;47.052;15.462;2023-05-20T10:02:50;27.50;47.40
75931;DHT22;64609;47.052;15.462;2023-05-20T10:05:28;28.50;46.30
75931;DHT22;64609;47.052;15.462;2023-05-20T10:17:02;29.60;41.30
75931;DHT22;64609;47.052;15.462;2023-05-20T10:19:32;30.50;40.60
75931;DHT22;64609;47.052;15.462;2023-05-20T10:22:02;30.90;38.60
75931;DHT22;64609;47.052;15.462;2023-05-20T10:24:33;31.10;39.50
75931;DHT22;64609;47.052;15.462;2023-05-20T10:27:01;31.50;37.10
75931;DHT22;64609;47.052;15.462;2023-05-20T10:29:28;30.60;37.20
75931;DHT22;64609;47.052;15.462;2023-05-20T10:31:54;30.10;38.00
75931;DHT22;64609;47.052;15.462;2023-05-20T10:34:21;30.10;39.30
75931;DHT22;64609;47.052;15.462;2023-05-20T10:39:24;29.40;38.90
75931;DHT22;64609;47.052;15.462;2023-05-20T10:41:50;28.90;39.30
75931;DHT22;64609;47.052;15.462;2023-05-20T10:44:17;28.50;41.10
75931;DHT22;64609;47.052;15.462;2023-05-20T10:46:43;28.40;40.10
75931;DHT22;64609;47.052;15.462;2023-05-20T10:49:18;28.60;41.20
75931;DHT22;64609;47.052;15.462;2023-05-20T10:51:47;29.40;39.90
75931;DHT22;64609;47.052;15.462;2023-05-20T10:54:13;29.40;39.70
75931;DHT22;64609;47.052;15.462;2023-05-20T10:56:49;29.80;40.20
75931;DHT22;64609;47.052;15.462;2023-05-20T10:59:15;30.10;38.70
75931;DHT22;64609;47.052;15.462;2023-05-20T11:01:41;30.30;38.90
75931;DHT22;64609;47.052;15.462;2023-05-20T11:04:08;30.10;38.10
75931;DHT22;64609;47.052;15.462;2023-05-20T11:06:34;29.70;38.50
75931;DHT22;64609;47.052;15.462;2023-05-20T11:09:03;29.70;39.20
75931;DHT22;64609;47.052;15.462;2023-05-20T11:11:32;29.50;39.40
75931;DHT22;64609;47.052;15.462;2023-05-20T11:13:58;29.20;39.90
75931;DHT22;64609;47.052;15.462;2023-05-20T11:16:25;29.10;39.80
75931;DHT22;64609;47.052;15.462;2023-05-20T11:18:50;28.70;40.10
75931;DHT22;64609;47.052;15.462;2023-05-20T11:21:17;28.20;40.30
75931;DHT22;64609;47.052;15.462;2023-05-20T11:23:44;27.80;41.20
75931;DHT22;64609;47.052;15.462;2023-05-20T11:26:10;28.00;41.80
75931;DHT22;64609;47.052;15.462;2023-05-20T11:28:36;28.30;41.70
75931;DHT22;64609;47.052;15.462;2023-05-20T11:31:03;28.60;42.20
75931;DHT22;64609;47.052;15.462;2023-05-20T11:33:29;29.10;42.30
75931;DHT22;64609;47.052;15.462;2023-05-20T11:35:55;29.40;41.70
75931;DHT22;64609;47.052;15.462;2023-05-20T11:38:22;29.70;41.60
75931;DHT22;64609;47.052;15.462;2023-05-20T11:40:52;29.80;40.20
75931;DHT22;64609;47.052;15.462;2023-05-20T11:43:19;30.00;40.00
75931;DHT22;64609;47.052;15.462;2023-05-20T11:45:46;30.20;39.90
75931;DHT22;64609;47.052;15.462;2023-05-20T11:48:12;30.10;39.80
75931;DHT22;64609;47.052;15.462;2023-05-20T11:50:42;29.80;40.30
75931;DHT22;64609;47.052;15.462;2023-05-20T11:53:10;29.20;40.40
75931;DHT22;64609;47.052;15.462;2023-05-20T11:55:48;28.60;39.30
75931;DHT22;64609;47.052;15.462;2023-05-20T11:58:15;28.70;40.30
75931;DHT22;64609;47.052;15.462;2023-05-20T12:00:42;28.60;39.70
75931;DHT22;64609;47.052;15.462;2023-05-20T12:03:08;28.40;41.00
75931;DHT22;64609;47.052;15.462;2023-05-20T12:05:34;28.50;41.00
75931;DHT22;64609;47.052;15.462;2023-05-20T12:07:59;28.60;40.30
75931;DHT22;64609;47.052;15.462;2023-05-20T12:10:25;28.70;40.70
75931;DHT22;64609;47.052;15.462;2023-05-20T12:12:51;28.60;40.30
75931;DHT22;64609;47.052;15.462;2023-05-20T12:15:16;28.60;40.60
75931;DHT22;64609;47.052;15.462;2023-05-20T12:17:47;28.60;40.90
75931;DHT22;64609;47.052;15.462;2023-05-20T12:20:15;28.60;41.00
75931;DHT22;64609;47.052;15.462;2023-05-20T12:22:44;28.30;40.60
75931;DHT22;64609;47.052;15.462;2023-05-20T12:25:11;27.80;41.50
75931;DHT22;64609;47.052;15.462;2023-05-20T12:27:39;27.50;42.20
75931;DHT22;64609;47.052;15.462;2023-05-20T12:30:05;27.20;42.50
75931;DHT22;64609;47.052;15.462;2023-05-20T12:32:31;27.30;43.10
75931;DHT22;64609;47.052;15.462;2023-05-20T12:34:57;27.60;43.20
75931;DHT22;64609;47.052;15.462;2023-05-20T12:37:23;27.70;42.30
75931;DHT22;64609;47.052;15.462;2023-05-20T12:39:48;27.90;42.80
75931;DHT22;64609;47.052;15.462;2023-05-20T12:42:14;28.00;42.50
75931;DHT22;64609;47.052;15.462;2023-05-20T12:44:40;27.60;42.00
75931;DHT22;64609;47.052;15.462;2023-05-20T12:47:05;27.30;41.90
75931;DHT22;64609;47.052;15.462;2023-05-20T12:49:31;27.20;42.30
75931;DHT22;64609;47.052;15.462;2023-05-20T12:51:56;27.40;42.90
75931;DHT22;64609;47.052;15.462;2023-05-20T12:54:22;27.30;42.40
75931;DHT22;64609;47.052;15.462;2023-05-20T12:56:52;27.40;43.30
75931;DHT22;64609;47.052;15.462;2023-05-20T12:59:18;27.50;42.00
75931;DHT22;64609;47.052;15.462;2023-05-20T13:01:44;27.60;42.50
75931;DHT22;64609;47.052;15.462;2023-05-20T13:04:09;27.70;43.00
75931;DHT22;64609;47.052;15.462;2023-05-20T13:06:35;28.00;42.80
75931;DHT22;64609;47.052;15.462;2023-05-20T13:09:01;28.20;42.30
75931;DHT22;64609;47.052;15.462;2023-05-20T13:11:26;28.20;41.50
75931;DHT22;64609;47.052;15.462;2023-05-20T13:13:55;28.10;41.50
75931;DHT22;64609;47.052;15.462;2023-05-20T13:16:22;28.30;41.80
75931;DHT22;64609;47.052;15.462;2023-05-20T13:18:48;28.30;41.20
75931;DHT22;64609;47.052;15.462;2023-05-20T13:21:16;28.10;41.90
75931;DHT22;64609;47.052;15.462;2023-05-20T13:23:42;28.10;41.40
75931;DHT22;64609;47.052;15.462;2023-05-20T13:26:08;27.80;41.90
75931;DHT22;64609;47.052;15.462;2023-05-20T13:28:34;27.80;42.50
75931;DHT22;64609;47.052;15.462;2023-05-20T13:31:01;27.70;42.40
75931;DHT22;64609;47.052;15.462;2023-05-20T13:33:27;27.40;42.30
75931;DHT22;64609;47.052;15.462;2023-05-20T13:35:53;27.40;43.30
75931;DHT22;64609;47.052;15.462;2023-05-20T13:38:19;27.50;43.60
75931;DHT22;64609;47.052;15.462;2023-05-20T13:40:44;27.40;42.80
75931;DHT22;64609;47.052;15.462;2023-05-20T13:43:10;27.30;42.60
75931;DHT22;64609;47.052;15.462;2023-05-20T13:45:36;27.30;43.30
75931;DHT22;64609;47.052;15.462;2023-05-20T13:48:01;27.30;43.20
75931;DHT22;64609;47.052;15.462;2023-05-20T13:50:27;27.20;43.00
75931;DHT22;64609;47.052;15.462;2023-05-20T13:52:53;27.20;42.90
75931;DHT22;64609;47.052;15.462;2023-05-20T13:55:19;27.20;43.20
75931;DHT22;64609;47.052;15.462;2023-05-20T13:57:44;27.10;43.60
75931;DHT22;64609;47.052;15.462;2023-05-20T14:00:10;27.00;44.10
75931;DHT22;64609;47.052;15.462;2023-05-20T14:02:37;26.60;44.60
75931;DHT22;64609;47.052;15.462;2023-05-20T14:05:02;26.50;45.10
75931;DHT22;64609;47.052;15.462;2023-05-20T14:07:28;26.80;45.60
75931;DHT22;64609;47.052;15.462;2023-05-20T14:09:54;27.10;45.00
75931;DHT22;64609;47.052;15.462;2023-05-20T14:12:19;27.30;45.00
75931;DHT22;64609;47.052;15.462;2023-05-20T14:14:47;27.50;45.00
75931;DHT22;64609;47.052;15.462;2023-05-20T14:17:12;27.70;44.60
75931;DHT22;64609;47.052;15.462;2023-05-20T14:19:38;27.80;44.50
75931;DHT22;64609;47.052;15.462;2023-05-20T14:22:04;28.00;44.40
75931;DHT22;64609;47.052;15.462;2023-05-20T14:24:29;28.20;44.20
75931;DHT22;64609;47.052;15.462;2023-05-20T14:26:55;28.30;43.80
75931;DHT22;64609;47.052;15.462;2023-05-20T14:29:21;28.30;43.60
75931;DHT22;64609;47.052;15.462;2023-05-20T14:31:46;28.40;43.60
75931;DHT22;64609;47.052;15.462;2023-05-20T14:34:12;28.40;42.80
75931;DHT22;64609;47.052;15.462;2023-05-20T14:36:38;28.20;42.90
75931;DHT22;64609;47.052;15.462;2023-05-20T14:39:04;28.10;44.30
75931;DHT22;64609;47.052;15.462;2023-05-20T14:41:30;28.00;43.40
75931;DHT22;64609;47.052;15.462;2023-05-20T14:43:55;27.90;43.80
75931;DHT22;64609;47.052;15.462;2023-05-20T14:46:21;27.80;43.70
75931;DHT22;64609;47.052;15.462;2023-05-20T14:48:47;27.60;43.50
75931;DHT22;64609;47.052;15.462;2023-05-20T14:51:12;27.20;43.90
75931;DHT22;64609;47.052;15.462;2023-05-20T14:53:38;27.10;44.20
75931;DHT22;64609;47.052;15.462;2023-05-20T14:56:04;26.90;44.10
75931;DHT22;64609;47.052;15.462;2023-05-20T14:58:29;26.70;44.40
75931;DHT22;64609;47.052;15.462;2023-05-20T15:00:55;26.70;44.70
75931;DHT22;64609;47.052;15.462;2023-05-20T15:03:21;26.70;45.00
75931;DHT22;64609;47.052;15.462;2023-05-20T15:05:48;26.70;46.10
75931;DHT22;64609;47.052;15.462;2023-05-20T15:08:14;26.70;45.30
75931;DHT22;64609;47.052;15.462;2023-05-20T15:10:40;26.60;45.30
75931;DHT22;64609;47.052;15.462;2023-05-20T15:13:06;26.50;45.40
75931;DHT22;64609;47.052;15.462;2023-05-20T15:15:32;26.60;45.60
75931;DHT22;64609;47.052;15.462;2023-05-20T15:17:58;26.70;45.70
75931;DHT22;64609;47.052;15.462;2023-05-20T15:20:24;26.60;46.40
75931;DHT22;64609;47.052;15.462;2023-05-20T15:22:50;26.70;45.60
75931;DHT22;64609;47.052;15.462;2023-05-20T15:25:15;26.60;45.60
75931;DHT22;64609;47.052;15.462;2023-05-20T15:27:41;26.70;46.00